Etusivu
METAR-TAF:

METAR-TAF

Lentoasemat :

Bamako, Mali

Senoun kansainvälinen lentoasema

Leveyspiiri: 12-32N, Pituuspiiri: 007-57W, korkeus merenpinnasta: 380 m

Tämänhetkinen sää

Tämä raportti tehtiin 33 minuuttia sitten, kello 17.00 UTC
Tuuli 5 kn pohjoisesta
Lämpötila 30°C
Kosteus 18%
Ilmanpaine 1011 hPa
Näkyvyys 10 km tai enemmän
ei pilviä alle 1500 m:ssä eikä cumulonimbus-pilviä

METAR: GABS 171700Z 36005KT CAVOK 30/03 Q1011 NOSIG

Aika: 17:33 (17:33 UTC)

Sääennuste

Tämä raportti tehtiin 6 tuntia ja 23 minuuttia sitten, kello 11.10 UTC
Ennuste voimassa 17. päivästä klo 12 UTC - 18. päivään klo 18 UTC
Tuuli 10 kn koillisesta
Näkyvyys: 8000 m

TAF: GABS 171110Z 1712/1818 04010KT 8000 NSC

Säähavainnot ja -ennusteet yli 4000 lentoasemalta (METAR- ja TAF-raportit).

Käytössä olevat sääasemat on merkitty karttaan keltaisilla ja punaisilla pisteillä.

Aseta hiiri pisteen päälle nähdäksesi sääaseman nimen.

Klikkaa sitten nähdäksesi säähavainnot ja -ennusteet.

Kartan vaihtaminen: klikkaa mustalla rastilla varustettuja vihreitä pisteitä, niin voit zoomata sisään; viivalla varustettua vihreää pistettä, niin voit zoomata ulos tai vihreitä nuolia, niin pääset viereisille kartoille.


METAR-TAF: